Time;durP1;ratioP1;P1;durP2;ratioP2;P2;SDS_P1;SDS_P2;PMS_P1;PMS_P2;Temp;Humidity;BMP_temperature;BMP_pressure;BME280_temperature;BME280_humidity;BME280_pressure;Samples;Min_cycle;Max_cycle;Signal;HPM_P1;HPM_P2
2023/10/14 00:15:19;;;;;;;13.15;5.78;;;19.30;99.90;;;;;;4574505;19;20034;-74
2023/10/14 00:16:55;;;;;;;8.93;5.15;;;19.40;99.90;;;;;;4593572;19;20002;-74
2023/10/14 00:18:32;;;;;;;11.57;6.80;;;19.30;99.90;;;;;;4593670;19;20015;-75
2023/10/14 00:20:08;;;;;;;10.13;5.45;;;19.30;99.90;;;;;;4593608;19;20114;-74
2023/10/14 00:21:43;;;;;;;8.25;5.55;;;19.30;99.90;;;;;;4593668;19;20438;-74
2023/10/14 00:23:17;;;;;;;13.13;5.90;;;19.30;99.90;;;;;;4592457;19;20002;-74
2023/10/14 00:24:52;;;;;;;10.98;5.65;;;19.30;99.90;;;;;;4592537;19;20002;-74
2023/10/14 00:26:28;;;;;;;13.57;6.10;;;19.30;99.90;;;;;;4592521;19;20014;-74
2023/10/14 00:28:11;;;;;;;11.50;5.20;;;19.30;99.90;;;;;;4593448;19;20309;-74
2023/10/14 00:29:50;;;;;;;10.60;5.55;;;19.30;99.90;;;;;;4592064;19;20060;-74
2023/10/14 00:31:25;;;;;;;8.45;5.57;;;19.30;99.90;;;;;;4593121;19;20006;-74
2023/10/14 00:32:59;;;;;;;7.13;4.85;;;19.30;99.90;;;;;;4593301;19;19998;-74
2023/10/14 00:34:34;;;;;;;8.40;5.53;;;19.40;99.90;;;;;;4592931;19;20002;-74
2023/10/14 00:36:10;;;;;;;14.95;7.45;;;19.30;99.90;;;;;;4593228;19;19995;-74
2023/10/14 00:37:44;;;;;;;13.30;6.43;;;19.30;99.90;;;;;;4593285;19;20006;-74
2023/10/14 00:39:24;;;;;;;8.07;5.70;;;19.30;99.90;;;;;;4593170;19;20359;-74
2023/10/14 00:40:59;;;;;;;11.32;5.50;;;19.30;99.90;;;;;;4593211;19;20006;-74
2023/10/14 00:42:33;;;;;;;10.20;5.82;;;19.30;99.90;;;;;;4593090;19;19999;-74
2023/10/14 00:44:07;;;;;;;9.07;6.45;;;19.20;99.90;;;;;;4593062;19;20002;-74
2023/10/14 00:45:45;;;;;;;10.15;5.10;;;19.20;99.90;;;;;;4591752;19;20022;-74
2023/10/14 00:47:24;;;;;;;8.63;5.13;;;19.20;99.90;;;;;;4593072;19;20337;-74
2023/10/14 00:49:04;;;;;;;9.15;6.22;;;19.30;99.90;;;;;;4593231;19;20453;-74
2023/10/14 00:50:41;;;;;;;10.38;5.05;;;19.20;99.90;;;;;;4591721;19;20092;-74
2023/10/14 00:52:22;;;;;;;9.00;5.35;;;19.20;99.90;;;;;;4591558;19;20007;-74
2023/10/14 00:54:01;;;;;;;8.25;5.32;;;19.20;99.90;;;;;;4592674;19;20020;-74
2023/10/14 00:58:57;;;;;;;10.20;6.18;;;19.30;99.90;;;;;;4592471;19;20001;-74
2023/10/14 01:00:38;;;;;;;11.20;5.20;;;19.20;99.90;;;;;;4593040;19;20002;-74
2023/10/14 01:02:13;;;;;;;9.50;6.00;;;19.20;99.90;;;;;;4592754;19;20013;-74
2023/10/14 01:03:48;;;;;;;8.70;5.35;;;19.20;99.90;;;;;;4593056;19;20426;-74
2023/10/14 01:05:25;;;;;;;9.68;5.75;;;19.20;99.90;;;;;;4590301;19;20006;-74
2023/10/14 01:07:04;;;;;;;10.82;5.78;;;19.20;99.90;;;;;;4592486;19;20066;-74
2023/10/14 01:08:41;;;;;;;10.10;5.75;;;19.20;99.90;;;;;;4591577;19;20015;-74
2023/10/14 01:10:24;;;;;;;9.20;5.65;;;19.20;99.90;;;;;;4592299;19;20013;-74
2023/10/14 01:12:06;;;;;;;9.38;5.43;;;19.20;99.90;;;;;;4592888;19;20489;-74
2023/10/14 01:13:44;;;;;;;8.70;6.32;;;19.20;99.90;;;;;;4592518;19;20034;-74
2023/10/14 01:15:20;;;;;;;8.30;5.28;;;19.20;99.90;;;;;;4591348;19;20014;-74
2023/10/14 01:16:55;;;;;;;9.90;5.22;;;19.20;99.90;;;;;;4592394;19;20003;-74
2023/10/14 01:18:34;;;;;;;7.78;5.47;;;19.20;99.90;;;;;;4592306;19;20017;-74
2023/10/14 01:21:52;;;;;;;9.20;4.88;;;19.20;99.90;;;;;;4592239;19;20076;-74
2023/10/14 01:23:26;;;;;;;10.95;6.47;;;19.20;99.90;;;;;;4592318;19;20003;-74
2023/10/14 01:25:05;;;;;;;11.00;5.35;;;19.20;99.90;;;;;;4591675;19;20018;-74
2023/10/14 01:26:48;;;;;;;10.00;4.97;;;19.20;99.90;;;;;;4592373;19;20291;-74
2023/10/14 01:28:30;;;;;;;8.52;4.88;;;19.20;99.90;;;;;;4590894;19;20007;-74
2023/10/14 01:30:10;;;;;;;9.77;4.85;;;19.20;99.90;;;;;;4591165;19;20030;-74
2023/10/14 01:32:25;;;;;;;8.07;5.22;;;19.20;99.90;;;;;;4590822;19;20040;-74
2023/10/14 01:34:01;;;;;;;8.20;5.38;;;19.20;99.90;;;;;;4590808;19;20040;-74
2023/10/14 01:35:41;;;;;;;10.73;5.93;;;19.20;99.90;;;;;;4590843;19;20350;-74
2023/10/14 01:37:19;;;;;;;8.48;5.38;;;19.20;99.90;;;;;;4592024;19;20040;-74
2023/10/14 01:38:59;;;;;;;10.07;4.88;;;19.10;99.90;;;;;;4590996;19;20014;-74
2023/10/14 01:40:44;;;;;;;9.10;5.35;;;19.10;99.90;;;;;;4591892;19;20013;-74
2023/10/14 01:42:19;;;;;;;8.95;5.45;;;19.10;99.90;;;;;;4592027;19;20007;-74
2023/10/14 01:43:53;;;;;;;6.93;4.55;;;19.10;99.90;;;;;;4592204;19;20418;-74
2023/10/14 01:45:31;;;;;;;8.48;5.13;;;19.10;99.90;;;;;;4591549;19;20014;-74
2023/10/14 01:47:08;;;;;;;8.93;5.03;;;19.10;99.90;;;;;;4590850;19;20010;-74
2023/10/14 01:48:44;;;;;;;10.32;4.75;;;19.10;99.90;;;;;;4590368;19;20003;-74
2023/10/14 01:50:21;;;;;;;11.60;5.30;;;19.10;99.90;;;;;;4591632;19;20105;-74
2023/10/14 01:51:59;;;;;;;10.75;5.60;;;19.10;99.90;;;;;;4590412;19;20007;-74
2023/10/14 01:53:35;;;;;;;7.35;4.45;;;19.10;99.90;;;;;;4590831;19;20311;-74
2023/10/14 01:55:10;;;;;;;10.23;5.18;;;19.10;99.90;;;;;;4590633;19;20050;-75
2023/10/14 01:56:46;;;;;;;9.40;5.45;;;19.10;99.90;;;;;;4592048;19;20440;-74
2023/10/14 01:58:29;;;;;;;7.93;4.65;;;19.10;99.90;;;;;;4591780;19;20011;-74
2023/10/14 02:00:23;;;;;;;10.98;4.93;;;19.10;99.90;;;;;;4590410;19;20003;-74
2023/10/14 02:01:58;;;;;;;10.00;5.47;;;19.10;99.90;;;;;;4591774;19;20009;-74
2023/10/14 02:03:33;;;;;;;8.02;4.80;;;19.10;99.90;;;;;;4591586;19;19999;-74
2023/10/14 02:05:09;;;;;;;5.70;3.97;;;19.10;99.90;;;;;;4589426;19;20010;-74
2023/10/14 02:06:46;;;;;;;10.30;4.95;;;19.10;99.90;;;;;;4590457;19;20314;-74
2023/10/14 02:08:23;;;;;;;10.32;4.85;;;19.00;99.90;;;;;;4591586;19;20007;-75
2023/10/14 02:09:59;;;;;;;6.97;4.72;;;19.10;99.90;;;;;;4591656;19;20472;-74
2023/10/14 02:11:34;;;;;;;7.82;4.82;;;19.10;99.90;;;;;;4591535;19;20009;-74
2023/10/14 02:13:08;;;;;;;6.78;4.38;;;19.00;99.90;;;;;;4590259;19;20010;-74
2023/10/14 02:14:44;;;;;;;7.15;4.93;;;19.10;99.90;;;;;;4590410;19;20011;-74
2023/10/14 02:16:40;;;;;;;9.05;5.03;;;19.10;99.90;;;;;;4591330;19;20013;-74
2023/10/14 02:18:22;;;;;;;7.72;4.38;;;19.10;99.90;;;;;;4591277;19;20380;-74
2023/10/14 02:20:08;;;;;;;8.05;4.35;;;19.10;99.90;;;;;;4590075;19;20031;-74
2023/10/14 02:21:42;;;;;;;9.43;4.53;;;19.10;99.90;;;;;;4591093;19;20044;-74
2023/10/14 02:23:16;;;;;;;9.48;5.00;;;19.10;99.90;;;;;;4591624;19;19999;-74
2023/10/14 02:24:56;;;;;;;7.47;4.45;;;19.10;99.90;;;;;;4589194;19;20088;-74
2023/10/14 02:26:34;;;;;;;9.60;4.80;;;19.00;99.90;;;;;;4588972;19;20019;-74
2023/10/14 02:28:14;;;;;;;8.65;4.32;;;19.00;99.90;;;;;;4591105;19;20414;-75
2023/10/14 02:29:50;;;;;;;7.55;4.53;;;19.10;99.90;;;;;;4591665;19;20002;-74
2023/10/14 02:31:41;;;;;;;9.18;4.63;;;19.10;99.90;;;;;;4591216;19;20052;-74
2023/10/14 02:33:15;;;;;;;7.15;3.78;;;19.00;99.90;;;;;;4590155;19;20043;-74
2023/10/14 02:34:52;;;;;;;8.25;4.65;;;19.00;99.90;;;;;;4590505;19;20015;-74
2023/10/14 02:36:35;;;;;;;9.43;4.70;;;19.00;99.90;;;;;;4591090;19;20007;-74
2023/10/14 02:38:09;;;;;;;11.05;5.07;;;19.00;99.90;;;;;;4591187;19;20007;-74
2023/10/14 02:39:50;;;;;;;6.10;3.90;;;19.00;99.90;;;;;;4591339;19;20462;-75
2023/10/14 02:41:32;;;;;;;9.20;4.55;;;19.00;99.90;;;;;;4591096;19;20006;-74
2023/10/14 02:43:06;;;;;;;8.88;4.30;;;19.00;99.90;;;;;;4591137;19;20007;-74
2023/10/14 02:44:51;;;;;;;9.15;4.90;;;19.00;99.90;;;;;;4594224;19;20294;-74
2023/10/14 02:46:26;;;;;;;10.68;5.28;;;19.00;99.90;;;;;;4592961;19;20445;-74
2023/10/14 02:48:02;;;;;;;9.48;5.18;;;19.00;99.90;;;;;;4595353;19;20023;-74
2023/10/14 02:49:38;;;;;;;8.48;5.25;;;19.00;99.90;;;;;;4595810;19;20012;-74
2023/10/14 02:51:16;;;;;;;8.35;5.03;;;19.00;99.90;;;;;;4595410;19;20002;-75
2023/10/14 02:53:00;;;;;;;7.75;4.60;;;19.00;99.90;;;;;;4595334;19;20442;-74
2023/10/14 02:54:41;;;;;;;7.82;4.38;;;19.00;99.90;;;;;;4593186;19;20052;-75
2023/10/14 02:56:21;;;;;;;8.38;4.50;;;19.00;99.90;;;;;;4594028;19;20007;-74
2023/10/14 02:58:02;;;;;;;9.13;4.82;;;19.00;99.90;;;;;;4594190;19;20006;-74
2023/10/14 02:59:46;;;;;;;9.63;4.70;;;19.00;99.90;;;;;;4595088;19;20070;-74
2023/10/14 03:01:23;;;;;;;8.80;4.53;;;19.00;99.90;;;;;;4595251;19;20006;-75
2023/10/14 03:03:12;;;;;;;9.90;4.35;;;19.00;99.90;;;;;;4595235;19;20516;-74
2023/10/14 03:06:46;;;;;;;10.75;4.97;;;19.10;99.90;;;;;;4593839;19;20069;-75
2023/10/14 03:08:21;;;;;;;8.27;4.28;;;19.00;99.90;;;;;;4594039;19;20006;-74
2023/10/14 03:12:05;;;;;;;9.88;5.07;;;19.00;99.90;;;;;;4592521;19;20005;-74
2023/10/14 03:13:41;;;;;;;10.93;4.22;;;19.00;99.90;;;;;;4592836;19;20414;-74
2023/10/14 03:15:22;;;;;;;9.20;4.47;;;19.00;99.90;;;;;;4591156;19;20040;-75
2023/10/14 03:16:57;;;;;;;10.10;4.53;;;19.00;99.90;;;;;;4592486;19;20003;-74
2023/10/14 03:18:37;;;;;;;14.80;5.20;;;19.00;99.90;;;;;;4592520;19;20373;-75
2023/10/14 03:22:01;;;;;;;8.85;5.03;;;19.00;99.90;;;;;;4592408;19;20478;-74
2023/10/14 03:23:36;;;;;;;10.23;4.78;;;19.00;99.90;;;;;;4592566;19;19999;-74
2023/10/14 03:25:15;;;;;;;8.10;3.58;;;19.00;99.90;;;;;;4591281;19;20482;-74
2023/10/14 03:26:56;;;;;;;7.22;4.05;;;19.10;99.90;;;;;;4592470;19;20043;-74
2023/10/14 03:28:30;;;;;;;;;;;19.00;99.90;;;;;;4593589;19;20013;-74
2023/10/14 03:30:10;;;;;;;7.55;3.70;;;19.00;99.90;;;;;;4592301;19;20000;-74
2023/10/14 03:31:47;;;;;;;13.10;4.68;;;19.00;99.90;;;;;;4592387;19;20067;-74
2023/10/14 03:33:22;;;;;;;9.52;4.05;;;19.00;99.90;;;;;;4592206;19;19995;-74
2023/10/14 03:35:08;;;;;;;9.40;4.40;;;19.00;99.90;;;;;;4591738;19;20045;-74
2023/10/14 03:36:50;;;;;;;8.55;3.95;;;19.10;99.90;;;;;;4592371;19;20073;-74
2023/10/14 03:38:25;;;;;;;7.75;3.70;;;19.10;99.90;;;;;;4592278;19;20010;-74
2023/10/14 03:41:52;;;;;;;7.55;4.03;;;19.30;99.90;;;;;;4592047;19;20010;-74
2023/10/14 03:43:27;;;;;;;11.50;4.82;;;19.30;99.90;;;;;;4592043;19;20069;-73
2023/10/14 03:45:06;;;;;;;10.43;4.78;;;19.30;99.90;;;;;;4591297;19;20332;-74
2023/10/14 03:46:47;;;;;;;9.88;4.53;;;19.40;99.90;;;;;;4590858;19;20010;-74
2023/10/14 03:48:21;;;;;;;8.18;3.67;;;19.40;99.90;;;;;;4592314;19;20006;-73
2023/10/14 03:49:58;;;;;;;9.07;5.18;;;19.40;99.90;;;;;;4594257;19;20027;-74
2023/10/14 03:51:33;;;;;;;13.32;4.82;;;19.50;99.90;;;;;;4594146;19;20074;-73
2023/10/14 03:53:08;;;;;;;8.57;4.13;;;19.50;99.90;;;;;;4594093;19;19998;-74
2023/10/14 03:54:45;;;;;;;9.07;5.35;;;19.50;99.90;;;;;;4591711;19;20082;-74
2023/10/14 03:56:29;;;;;;;10.27;3.65;;;19.50;99.90;;;;;;4593829;19;20002;-73
2023/10/14 03:58:08;;;;;;;7.13;4.35;;;19.50;99.90;;;;;;4593995;19;20436;-73
2023/10/14 03:59:46;;;;;;;8.18;3.60;;;19.50;99.90;;;;;;4594100;19;20019;-73
2023/10/14 04:01:34;;;;;;;7.63;3.95;;;19.50;99.90;;;;;;4592869;19;20037;-74
2023/10/14 04:03:29;;;;;;;7.45;3.42;;;19.50;99.90;;;;;;4592717;19;20013;-74
2023/10/14 04:05:10;;;;;;;9.90;4.28;;;19.50;99.90;;;;;;4591597;19;20031;-74
2023/10/14 04:08:39;;;;;;;9.52;4.40;;;19.50;99.90;;;;;;4592471;19;20291;-73
2023/10/14 04:10:22;;;;;;;7.35;4.00;;;19.50;99.90;;;;;;4592715;19;20013;-73
2023/10/14 04:11:59;;;;;;;10.90;4.07;;;19.40;99.90;;;;;;4593726;19;20043;-73
2023/10/14 04:13:36;;;;;;;7.47;3.60;;;19.50;99.90;;;;;;4592653;19;20010;-73
2023/10/14 04:17:09;;;;;;;6.60;3.67;;;19.40;99.90;;;;;;4593386;19;20006;-74
2023/10/14 04:18:46;;;;;;;8.00;3.83;;;19.40;99.90;;;;;;4593598;19;20013;-74
2023/10/14 04:20:29;;;;;;;8.13;3.60;;;19.40;99.90;;;;;;4593573;19;20029;-73
2023/10/14 04:22:27;;;;;;;10.90;4.30;;;19.40;99.90;;;;;;4593593;19;20005;-73
2023/10/14 04:24:12;;;;;;;10.10;4.75;;;19.40;99.90;;;;;;4592156;19;20006;-74
2023/10/14 04:26:01;;;;;;;8.25;3.80;;;19.40;99.90;;;;;;4592939;19;20030;-73
2023/10/14 04:27:37;;;;;;;10.02;4.20;;;19.40;99.90;;;;;;4592091;19;20003;-75
2023/10/14 04:29:34;;;;;;;8.25;4.22;;;19.30;99.90;;;;;;4592003;19;20076;-73
2023/10/14 04:31:07;;;;;;;8.30;3.67;;;19.40;99.90;;;;;;4593782;19;20441;-73
2023/10/14 04:32:48;;;;;;;6.07;3.53;;;19.40;99.90;;;;;;4593549;19;20070;-75
2023/10/14 04:34:22;;;;;;;6.95;3.70;;;19.40;99.90;;;;;;4593130;19;20007;-73
2023/10/14 04:36:19;;;;;;;11.75;4.15;;;19.40;99.90;;;;;;4591406;19;19998;-73
2023/10/14 04:37:51;;;;;;;6.43;4.10;;;19.40;99.90;;;;;;4593006;19;20007;-74
2023/10/14 04:39:42;;;;;;;10.05;3.80;;;19.40;99.90;;;;;;4592615;19;19998;-74
2023/10/14 04:41:24;;;;;;;11.98;3.75;;;19.30;99.90;;;;;;4593362;19;20023;-74
2023/10/14 04:43:19;;;;;;;8.25;3.90;;;19.40;99.90;;;;;;4591802;19;20013;-74
2023/10/14 04:44:55;;;;;;;8.18;3.80;;;19.30;99.90;;;;;;4590920;19;20380;-75
2023/10/14 04:46:46;;;;;;;8.70;4.05;;;19.30;99.90;;;;;;4591703;19;20013;-73
2023/10/14 04:48:37;;;;;;;10.20;3.88;;;19.30;99.90;;;;;;4591940;19;20430;-74
2023/10/14 04:50:13;;;;;;;8.35;4.00;;;19.30;99.90;;;;;;4593104;19;20009;-74
2023/10/14 04:51:48;;;;;;;9.50;4.20;;;19.30;99.90;;;;;;4593280;19;20014;-73
2023/10/14 04:53:28;;;;;;;6.95;4.03;;;19.30;99.90;;;;;;4592794;19;20010;-75
2023/10/14 04:55:25;;;;;;;8.77;3.47;;;19.30;99.90;;;;;;4591106;19;20090;-74
2023/10/14 04:57:25;;;;;;;6.50;3.55;;;19.30;99.90;;;;;;4592804;19;20007;-74
2023/10/14 04:58:59;;;;;;;7.03;3.70;;;19.00;99.90;;;;;;4591472;19;20306;-76
2023/10/14 05:00:42;;;;;;;7.78;3.90;;;18.30;99.90;;;;;;4592656;19;20027;-74
2023/10/14 05:02:20;;;;;;;6.50;3.78;;;18.10;99.90;;;;;;4591571;19;20006;-73
2023/10/14 05:03:59;;;;;;;5.53;3.65;;;18.00;99.90;;;;;;4592510;19;20010;-73
2023/10/14 05:05:41;;;;;;;;;;;18.00;99.90;;;;;;4592169;19;20013;-73
2023/10/14 05:07:16;;;;;;;7.25;4.20;;;18.00;99.90;;;;;;4586806;19;20220;-73
2023/10/14 05:08:54;;;;;;;7.72;4.45;;;18.10;99.90;;;;;;4589483;19;20010;-74
2023/10/14 05:10:29;;;;;;;9.20;4.00;;;18.10;99.90;;;;;;4588286;19;20327;-72
2023/10/14 05:12:08;;;;;;;6.97;4.22;;;18.20;99.90;;;;;;4589512;19;20451;-73
2023/10/14 05:13:44;;;;;;;7.80;4.10;;;18.20;99.90;;;;;;4589543;19;20013;-73
2023/10/14 05:15:21;;;;;;;7.05;3.83;;;18.20;99.90;;;;;;4587070;19;20038;-73
2023/10/14 05:16:58;;;;;;;7.57;3.50;;;18.30;99.90;;;;;;4589256;19;20445;-73
2023/10/14 05:18:35;;;;;;;7.05;4.35;;;18.30;99.90;;;;;;4590068;19;20002;-74
2023/10/14 05:20:22;;;;;;;5.95;3.80;;;18.30;99.90;;;;;;4590438;19;20036;-74
2023/10/14 05:23:53;;;;;;;8.10;4.20;;;18.40;99.90;;;;;;4591075;19;20002;-72
2023/10/14 05:25:30;;;;;;;5.22;3.67;;;18.40;99.90;;;;;;4591211;19;20361;-76
2023/10/14 05:27:12;;;;;;;7.15;3.33;;;18.40;99.90;;;;;;4591161;19;20006;-73
2023/10/14 05:28:47;;;;;;;7.10;3.95;;;18.40;99.90;;;;;;4590664;19;20011;-73
2023/10/14 05:30:21;;;;;;;8.45;4.20;;;18.50;99.90;;;;;;4591777;19;20010;-72
2023/10/14 05:32:15;;;;;;;6.80;3.88;;;18.50;99.90;;;;;;4590879;19;20007;-73
2023/10/14 05:33:51;;;;;;;6.88;3.50;;;18.50;99.90;;;;;;4590908;19;19994;-71
2023/10/14 05:35:28;;;;;;;7.78;4.25;;;18.50;99.90;;;;;;4591199;19;20410;-71
2023/10/14 05:37:07;;;;;;;6.78;4.13;;;18.50;99.90;;;;;;4592108;19;20022;-74
2023/10/14 05:38:45;;;;;;;8.00;3.67;;;18.50;99.90;;;;;;4589753;19;20010;-74
2023/10/14 05:40:28;;;;;;;8.85;4.30;;;18.50;99.90;;;;;;4589995;19;20010;-72
2023/10/14 05:42:21;;;;;;;7.85;3.60;;;18.40;99.90;;;;;;4590730;19;20022;-73
2023/10/14 05:44:07;;;;;;;6.45;4.15;;;18.50;99.90;;;;;;4592002;19;20006;-73
2023/10/14 05:45:46;;;;;;;7.18;4.15;;;18.40;99.90;;;;;;4590265;19;19998;-72
2023/10/14 05:47:21;;;;;;;6.95;4.53;;;18.50;99.90;;;;;;4591599;19;20430;-73
2023/10/14 05:48:56;;;;;;;6.85;4.25;;;18.50;99.90;;;;;;4590519;19;20052;-73
2023/10/14 05:50:33;;;;;;;5.43;3.92;;;18.50;99.90;;;;;;4591540;19;20009;-73
2023/10/14 05:52:11;;;;;;;7.50;3.92;;;18.40;99.90;;;;;;4591931;19;20006;-73
2023/10/14 05:53:46;;;;;;;6.13;3.40;;;18.50;99.90;;;;;;4592112;19;20020;-74
2023/10/14 05:55:24;;;;;;;6.43;3.47;;;18.40;99.90;;;;;;4590901;19;20010;-74
2023/10/14 05:57:00;;;;;;;5.85;3.60;;;18.50;99.90;;;;;;4591888;19;20006;-73
2023/10/14 05:58:34;;;;;;;6.55;3.65;;;18.50;99.90;;;;;;4591692;19;20429;-73
2023/10/14 06:00:21;;;;;;;8.80;4.90;;;18.50;99.90;;;;;;4591662;19;20020;-73
2023/10/14 06:01:57;;;;;;;6.35;3.53;;;18.50;99.90;;;;;;4590709;19;20006;-73
2023/10/14 06:03:31;;;;;;;6.55;4.13;;;18.50;99.90;;;;;;4590241;19;20003;-74
2023/10/14 06:05:06;;;;;;;8.55;3.60;;;18.50;99.90;;;;;;4590555;19;20006;-76
2023/10/14 06:06:43;;;;;;;7.88;4.40;;;18.50;99.90;;;;;;4590811;19;20007;-73
2023/10/14 06:08:17;;;;;;;6.90;4.60;;;18.50;99.90;;;;;;4591842;19;20318;-74
2023/10/14 06:09:51;;;;;;;7.05;3.88;;;18.50;99.90;;;;;;4591815;19;20003;-74
2023/10/14 06:11:27;;;;;;;8.77;4.68;;;18.50;99.90;;;;;;4591564;19;20002;-72
2023/10/14 06:13:05;;;;;;;7.18;4.13;;;18.50;99.90;;;;;;4591573;19;20003;-74
2023/10/14 06:14:44;;;;;;;8.45;4.57;;;18.40;99.90;;;;;;4589304;19;20010;-74
2023/10/14 06:16:19;;;;;;;7.45;4.18;;;18.50;99.90;;;;;;4590217;19;20434;-74
2023/10/14 06:17:57;;;;;;;5.15;3.65;;;18.40;99.90;;;;;;4592776;19;19999;-75
2023/10/14 06:19:31;;;;;;;8.02;5.40;;;18.40;99.90;;;;;;4596128;19;20031;-73
2023/10/14 06:21:08;;;;;;;8.65;4.68;;;18.40;99.90;;;;;;4596402;19;20302;-74
2023/10/14 06:22:43;;;;;;;7.22;4.40;;;18.40;99.90;;;;;;4594746;19;20102;-73
2023/10/14 06:24:17;;;;;;;6.35;4.10;;;18.40;99.90;;;;;;4594540;19;20078;-72
2023/10/14 06:25:52;;;;;;;7.28;4.50;;;18.40;99.90;;;;;;4594227;19;20417;-75
2023/10/14 06:27:26;;;;;;;8.57;4.15;;;18.40;99.90;;;;;;4595610;19;20009;-72
2023/10/14 06:29:00;;;;;;;8.77;4.15;;;18.40;99.90;;;;;;4595891;19;20070;-72
2023/10/14 06:30:35;;;;;;;6.65;4.43;;;18.40;99.90;;;;;;4595922;19;20002;-74
2023/10/14 06:32:10;;;;;;;6.35;4.32;;;18.40;99.90;;;;;;4595719;19;20006;-74
2023/10/14 06:33:45;;;;;;;8.20;4.35;;;18.40;99.90;;;;;;4595802;19;20002;-74
2023/10/14 06:35:21;;;;;;;6.28;3.65;;;18.30;99.90;;;;;;4594696;19;20088;-73
2023/10/14 06:37:00;;;;;;;6.20;3.92;;;18.30;99.90;;;;;;4595680;19;20073;-72
2023/10/14 06:38:37;;;;;;;6.47;4.17;;;18.40;99.90;;;;;;4594409;19;20006;-73
2023/10/14 06:40:13;;;;;;;5.63;4.32;;;18.30;99.90;;;;;;4595318;19;20366;-73
2023/10/14 06:41:48;;;;;;;7.05;4.40;;;18.30;99.90;;;;;;4594355;19;20116;-74
2023/10/14 06:43:27;;;;;;;8.82;4.03;;;18.30;99.90;;;;;;4595233;19;19994;-74
2023/10/14 06:45:05;;;;;;;6.97;4.65;;;18.30;99.90;;;;;;4593217;19;20014;-73
2023/10/14 06:46:39;;;;;;;6.75;4.20;;;18.30;99.90;;;;;;4593873;19;20006;-74
2023/10/14 06:48:19;;;;;;;7.07;4.57;;;18.30;99.90;;;;;;4595556;19;20006;-74
2023/10/14 06:49:55;;;;;;;5.10;3.70;;;18.40;99.90;;;;;;4595786;19;20006;-74
2023/10/14 06:51:30;;;;;;;6.07;4.55;;;18.40;99.90;;;;;;4595387;19;20005;-74
2023/10/14 06:53:07;;;;;;;6.20;3.67;;;18.40;99.90;;;;;;4595393;19;20002;-74
2023/10/14 06:54:43;;;;;;;6.30;4.18;;;18.40;99.90;;;;;;4594773;19;20010;-74
2023/10/14 06:56:17;;;;;;;8.02;4.13;;;18.40;99.90;;;;;;4595164;19;20011;-74
2023/10/14 06:57:55;;;;;;;9.77;5.30;;;18.40;99.90;;;;;;4595197;19;20036;-74
2023/10/14 06:59:30;;;;;;;5.97;4.10;;;18.40;99.90;;;;;;4595340;19;20074;-74
2023/10/14 07:01:07;;;;;;;8.73;4.68;;;18.40;99.90;;;;;;4594971;19;20437;-74
2023/10/14 07:02:43;;;;;;;4.97;3.90;;;18.50;99.90;;;;;;4595210;19;20058;-74
2023/10/14 07:04:19;;;;;;;6.57;4.18;;;18.50;99.90;;;;;;4595212;19;20315;-74
2023/10/14 07:05:58;;;;;;;7.53;4.95;;;18.50;99.90;;;;;;4594784;19;20018;-73
2023/10/14 07:07:32;;;;;;;7.28;4.13;;;18.50;99.90;;;;;;4595361;19;20029;-74
2023/10/14 07:09:17;;;;;;;6.20;3.85;;;18.50;99.90;;;;;;4595114;19;20006;-74
2023/10/14 07:10:52;;;;;;;7.20;4.13;;;18.50;99.90;;;;;;4595029;19;20013;-74
2023/10/14 07:12:28;;;;;;;6.30;3.80;;;18.60;99.90;;;;;;4593903;19;20298;-74
2023/10/14 07:14:03;;;;;;;8.77;4.30;;;18.90;99.90;;;;;;4594625;19;20006;-75
2023/10/14 07:15:38;;;;;;;7.35;3.78;;;19.30;99.90;;;;;;4593119;19;20014;-75
2023/10/14 07:17:25;;;;;;;7.75;4.40;;;19.60;99.90;;;;;;4593536;19;20031;-75
2023/10/14 07:19:00;;;;;;;5.82;4.32;;;19.80;99.90;;;;;;4594792;19;20006;-75
2023/10/14 07:20:35;;;;;;;6.43;4.00;;;20.10;99.90;;;;;;4595003;19;20038;-75
2023/10/14 07:22:09;;;;;;;7.20;3.80;;;20.30;99.90;;;;;;4594993;19;20010;-75
2023/10/14 07:23:46;;;;;;;7.90;3.55;;;20.40;99.90;;;;;;4594767;19;20303;-75
2023/10/14 07:25:20;;;;;;;5.90;3.50;;;20.50;99.90;;;;;;4592202;19;20074;-75
2023/10/14 07:26:57;;;;;;;6.82;4.10;;;20.60;99.90;;;;;;4592679;19;20032;-74
2023/10/14 07:28:35;;;;;;;6.20;4.40;;;19.70;99.90;;;;;;4593593;19;20002;-77
2023/10/14 07:30:17;;;;;;;7.10;3.75;;;19.10;99.90;;;;;;4592596;19;20438;-76
2023/10/14 07:31:53;;;;;;;7.75;3.92;;;18.80;99.90;;;;;;4593406;19;20011;-76
2023/10/14 07:33:29;;;;;;;6.68;4.18;;;18.70;99.90;;;;;;4594513;19;20078;-76
2023/10/14 07:35:05;;;;;;;8.82;4.10;;;18.60;99.90;;;;;;4593719;19;20007;-75
2023/10/14 07:36:39;;;;;;;9.07;4.75;;;18.60;99.90;;;;;;4594468;19;20441;-76
2023/10/14 07:38:15;;;;;;;6.78;4.40;;;18.60;99.90;;;;;;4594299;19;20007;-73
2023/10/14 07:39:52;;;;;;;6.93;4.10;;;18.60;99.90;;;;;;4594556;19;20003;-74
2023/10/14 07:41:28;;;;;;;5.68;3.90;;;18.60;99.90;;;;;;4594509;19;20014;-74
2023/10/14 07:43:05;;;;;;;6.63;4.05;;;18.60;99.90;;;;;;4594423;19;20006;-74
2023/10/14 07:44:39;;;;;;;7.95;4.20;;;18.60;99.90;;;;;;4592322;19;20015;-74
2023/10/14 07:46:13;;;;;;;7.30;4.32;;;18.70;99.90;;;;;;4591939;19;20009;-74
2023/10/14 07:47:49;;;;;;;6.65;4.60;;;18.70;99.90;;;;;;4592677;19;20017;-74
2023/10/14 07:49:23;;;;;;;6.57;4.28;;;18.70;99.90;;;;;;4592926;19;20036;-74
2023/10/14 07:50:58;;;;;;;7.88;4.13;;;18.70;99.90;;;;;;4593931;19;20426;-74
2023/10/14 07:52:33;;;;;;;7.40;5.07;;;18.70;99.90;;;;;;4594075;19;20014;-74
2023/10/14 07:54:08;;;;;;;5.93;4.32;;;18.70;99.90;;;;;;4593981;19;20323;-74
2023/10/14 07:55:51;;;;;;;7.95;5.97;;;18.70;99.90;;;;;;4592643;19;20025;-74
2023/10/14 07:57:26;;;;;;;8.23;5.28;;;18.70;99.90;;;;;;4592732;19;20329;-74
2023/10/14 07:59:01;;;;;;;7.00;4.30;;;18.70;99.90;;;;;;4593623;19;20324;-74
2023/10/14 08:00:52;;;;;;;6.72;4.65;;;18.70;99.90;;;;;;4593849;19;20006;-75
2023/10/14 08:02:29;;;;;;;10.65;5.32;;;18.70;99.90;;;;;;4592710;19;20006;-74
2023/10/14 08:04:07;;;;;;;7.72;4.10;;;18.70;99.90;;;;;;4593513;19;20006;-74
2023/10/14 08:05:49;;;;;;;8.45;4.88;;;18.70;99.90;;;;;;4591077;19;20063;-74
2023/10/14 08:07:27;;;;;;;;;;;18.70;99.90;;;;;;4593281;19;20003;-75
2023/10/14 08:09:03;;;;;;;6.57;4.03;;;18.70;99.90;;;;;;4593720;19;19933;-74
2023/10/14 08:10:46;;;;;;;8.05;3.83;;;18.70;99.90;;;;;;4592440;19;20006;-74
2023/10/14 08:12:22;;;;;;;6.72;4.80;;;18.70;99.90;;;;;;4592702;19;20027;-74
2023/10/14 08:13:56;;;;;;;6.30;3.95;;;18.70;99.90;;;;;;4593462;19;20011;-74
2023/10/14 08:15:31;;;;;;;9.80;4.53;;;18.70;99.90;;;;;;4590918;19;20014;-73
2023/10/14 08:17:11;;;;;;;8.55;4.75;;;18.80;99.90;;;;;;4593418;19;20107;-73
2023/10/14 08:18:46;;;;;;;8.20;4.55;;;18.80;99.90;;;;;;4593655;19;20006;-73
2023/10/14 08:20:20;;;;;;;8.30;4.97;;;18.80;99.90;;;;;;4593747;19;20003;-73
2023/10/14 08:21:56;;;;;;;7.03;4.88;;;18.90;99.90;;;;;;4593269;19;20007;-73
2023/10/14 08:23:30;;;;;;;8.88;5.13;;;18.90;99.90;;;;;;4593429;19;20006;-73
2023/10/14 08:25:05;;;;;;;9.15;5.15;;;18.90;99.90;;;;;;4591620;19;20006;-73
2023/10/14 08:26:41;;;;;;;10.57;4.72;;;18.90;99.90;;;;;;4592042;19;20013;-73
2023/10/14 08:28:15;;;;;;;6.63;4.53;;;18.90;99.90;;;;;;4591979;19;19999;-73
2023/10/14 08:29:50;;;;;;;7.82;4.68;;;19.00;99.90;;;;;;4591931;19;20011;-73
2023/10/14 08:31:33;;;;;;;8.50;5.00;;;18.90;99.90;;;;;;4592120;19;20011;-73
2023/10/14 08:33:09;;;;;;;7.05;4.45;;;19.00;99.90;;;;;;4592706;19;20010;-73
2023/10/14 08:34:43;;;;;;;8.15;4.38;;;18.90;99.90;;;;;;4592192;19;20006;-73
2023/10/14 08:36:21;;;;;;;9.85;5.55;;;18.90;99.90;;;;;;4591165;19;20444;-73
2023/10/14 08:37:57;;;;;;;7.13;4.65;;;18.90;99.90;;;;;;4591904;19;20003;-73
2023/10/14 08:39:31;;;;;;;6.10;4.20;;;18.90;99.90;;;;;;4591082;19;20007;-73
2023/10/14 08:41:09;;;;;;;6.60;4.60;;;19.00;99.90;;;;;;4589503;19;20006;-74
2023/10/14 08:43:07;;;;;;;8.13;4.32;;;19.00;99.90;;;;;;4590398;19;20331;-73
2023/10/14 08:44:45;;;;;;;8.50;5.30;;;19.00;99.90;;;;;;4591290;19;20014;-73
2023/10/14 08:46:29;;;;;;;8.48;5.05;;;19.10;99.90;;;;;;4590937;19;20010;-73
2023/10/14 08:48:11;;;;;;;7.32;4.43;;;19.10;99.90;;;;;;4592725;19;20049;-73
2023/10/14 08:49:45;;;;;;;6.95;4.65;;;19.10;99.90;;;;;;4592992;19;20430;-73
2023/10/14 08:51:21;;;;;;;8.63;4.82;;;19.20;99.90;;;;;;4591984;19;20573;-73
2023/10/14 08:53:00;;;;;;;7.97;4.60;;;19.10;99.90;;;;;;4592745;19;19999;-73
2023/10/14 08:54:34;;;;;;;7.03;4.30;;;19.20;99.90;;;;;;4591115;19;20353;-74
2023/10/14 08:56:09;;;;;;;5.57;4.13;;;19.20;99.90;;;;;;4592436;19;20022;-74
2023/10/14 08:57:48;;;;;;;6.35;4.57;;;19.30;99.90;;;;;;4590078;19;20034;-73
2023/10/14 08:59:23;;;;;;;8.25;5.03;;;19.20;99.90;;;;;;4590378;19;20370;-73
2023/10/14 09:00:59;;;;;;;7.40;4.53;;;19.30;99.90;;;;;;4590499;19;20002;-74
2023/10/14 09:02:36;;;;;;;8.32;6.50;;;19.30;99.90;;;;;;4590358;19;20361;-74
2023/10/14 09:04:14;;;;;;;12.60;9.80;;;19.30;99.90;;;;;;4590457;19;20006;-73